KILE/ILE METAR and TAF weather

Enter ICAO airport designator
Station Type Date Time Source
KILE METAR 2019/12/07 16:56 UTC NOAA

KILE 071656Z AUTO 00000KT 10SM CLR 12/03 A3034 RMK AO2 SLP270 T01170033


Station Type Date Time Source
KILE Decoded METAR 2019/12/07 16:56 UTC NOAA

Killeen, Skylark Field Airport, TX, United States (KILE) 31-05N 097-41W
Dec 07, 2019 - 11:56 AM EST / 2019.12.07 1656 UTC
Wind: Calm:0
Visibility: 10 mile(s):0
Sky conditions: clear
Temperature: 53.1 F (11.7 C)
Dew Point: 37.9 F (3.3 C)
Relative Humidity: 56%
Pressure (altimeter): 30.34 in. Hg (1027 hPa)
ob: KILE 071656Z AUTO 00000KT 10SM CLR 12/03 A3034 RMK AO2 SLP270 T01170033
cycle: 17

Station Type Date Time Source
KILE TAF UTC NOAA

Error!

Example: see airport list